Vila Rica, Brazil
Current Conditions -  °F | °C
As of 4:00 PM on Thursday 23 Oct 2014 (Local Time) from SBPJ Reporting Station
Thunderstorm Thunderstorm  
Wind Chill: 82°   Ceiling: 7000
Heat Index: 85°   Visibility: 6mi
Dew Point: 68°   Wind: 16mph
Humidity: 62%   Direction: 40°NE
Pressure: 29.85"   Gusts: NA
Location:  10.01°S, 51.12°W
Report Text: SBPJ 231900Z 04014KT 9999 TS VCSH SCT025 FEW030CB BKN070 28/20 Q1011
Loading
Personal Weather Stations






























Interactive Weather Map
Tropical Storm Tracking
New forecast layout! Learn more

10-Day Weather Forecast

Advertisements
Track Severe Weather on mobile